Time;durP1;ratioP1;P1;durP2;ratioP2;P2;SDS_P1;SDS_P2;PMS_P1;PMS_P2;Temp;Humidity;BMP_temperature;BMP_pressure;BME280_temperature;BME280_humidity;BME280_pressure;Samples;Min_cycle;Max_cycle;Signal;HPM_P1;HPM_P2
2022/10/03 00:02:18;;;;;;;9.93;2.97;;;15.10;79.60;;;17.96;56.64;102115.34;4880424;29;20207;-59
2022/10/03 00:05:09;;;;;;;12.67;3.50;;;15.10;78.70;;;17.95;56.52;102119.00;4878292;29;20224;-57
2022/10/03 00:07:58;;;;;;;6.57;3.03;;;15.10;78.60;;;17.92;56.64;102122.06;4879659;29;20251;-58
2022/10/03 00:10:44;;;;;;;6.70;2.57;;;15.10;78.50;;;17.87;56.43;102119.13;4879284;29;20666;-59
2022/10/03 00:13:25;;;;;;;8.33;2.40;;;15.10;78.40;;;17.81;56.64;102127.88;4879576;29;20224;-59
2022/10/03 00:16:12;;;;;;;9.10;2.27;;;15.00;79.10;;;17.74;56.68;102126.97;4879718;29;20273;-57
2022/10/03 00:18:57;;;;;;;8.73;2.43;;;15.00;78.40;;;17.71;56.79;102132.69;4880488;29;20191;-59
2022/10/03 00:21:47;;;;;;;7.80;2.63;;;14.90;78.40;;;17.66;56.85;102137.75;4879127;29;20263;-58
2022/10/03 00:24:31;;;;;;;10.03;2.40;;;14.90;78.50;;;17.63;56.88;102135.44;4884176;29;20641;-58
2022/10/03 00:27:09;;;;;;;8.47;2.93;;;14.90;78.50;;;17.59;56.79;102141.13;4898376;29;20202;-57
2022/10/03 00:29:58;;;;;;;12.97;2.57;;;14.80;78.50;;;17.53;56.83;102141.06;4897984;29;20195;-59
2022/10/03 00:32:48;;;;;;;8.90;2.90;;;14.80;78.60;;;17.47;56.76;102142.59;4905793;29;20234;-58
2022/10/03 00:35:40;;;;;;;6.97;2.40;;;14.80;79.40;;;17.43;56.96;102145.81;4912223;29;20233;-59
2022/10/03 00:38:36;;;;;;;4.33;2.40;;;14.70;78.70;;;17.37;57.11;102150.03;4897860;29;20253;-57
2022/10/03 00:41:42;;;;;;;6.27;2.40;;;14.70;78.80;;;17.35;57.26;102153.91;4894918;29;20677;-57
2022/10/03 00:45:07;;;;;;;6.13;2.10;;;14.60;78.90;;;17.28;57.47;102156.44;4898100;29;20235;-60
2022/10/03 00:48:14;;;;;;;6.50;2.43;;;14.60;79.40;;;17.27;57.50;102152.16;4898069;29;20255;-59
2022/10/03 00:51:18;;;;;;;6.87;2.83;;;14.60;79.30;;;17.25;57.55;102154.16;4897655;29;20195;-60
2022/10/03 00:54:07;;;;;;;7.37;2.67;;;14.60;79.30;;;17.28;57.45;102155.66;4897883;29;20227;-56
2022/10/03 00:57:05;;;;;;;5.87;2.50;;;14.50;80.30;;;17.27;57.49;102157.47;4895336;29;20196;-57
2022/10/03 01:00:01;;;;;;;5.40;2.43;;;14.50;79.50;;;17.27;57.66;102162.78;4881870;29;20207;-57
2022/10/03 01:02:58;;;;;;;10.13;3.10;;;14.50;79.70;;;17.28;57.86;102161.78;4882732;29;20207;-59
2022/10/03 01:05:45;;;;;;;7.13;2.60;;;14.50;79.80;;;17.29;57.52;102166.09;4897017;29;20220;-58
2022/10/03 01:08:47;;;;;;;10.50;2.43;;;14.50;79.80;;;17.26;57.72;102169.13;4884133;29;20247;-58
2022/10/03 01:11:35;;;;;;;6.10;2.20;;;14.50;80.00;;;17.28;57.93;102175.06;4882801;29;20742;-59
2022/10/03 01:14:22;;;;;;;7.23;2.53;;;14.50;80.20;;;17.29;57.75;102170.59;4897745;29;20246;-59
2022/10/03 01:17:09;;;;;;;6.00;2.00;;;14.50;80.20;;;17.34;58.02;102168.22;4901559;29;20195;-59
2022/10/03 01:20:13;;;;;;;5.03;2.30;;;14.50;80.50;;;17.36;57.92;102166.19;4901128;29;20254;-59
2022/10/03 01:23:21;;;;;;;8.27;2.77;;;14.50;80.40;;;17.36;57.94;102156.38;4900949;29;20214;-59
2022/10/03 01:26:04;;;;;;;4.67;1.67;;;14.50;80.40;;;17.42;57.83;102173.44;4899506;29;20235;-59
2022/10/03 01:31:51;;;;;;;12.20;2.80;;;14.50;80.30;;;17.48;57.82;102183.34;4881866;29;20215;-60
2022/10/03 01:34:28;;;;;;;10.77;2.73;;;14.60;80.30;;;17.54;57.69;102180.81;4900760;29;20203;-59
2022/10/03 01:37:08;;;;;;;6.90;2.53;;;14.60;80.40;;;17.59;57.70;102194.38;4901064;29;20195;-59
2022/10/03 01:39:49;;;;;;;9.40;2.93;;;14.60;80.40;;;17.64;57.41;102201.03;4901650;29;20564;-60
2022/10/03 01:42:36;;;;;;;13.90;2.67;;;14.70;80.50;;;17.66;57.62;102204.31;4900179;29;20223;-60
2022/10/03 01:45:24;;;;;;;7.67;2.40;;;14.70;80.40;;;17.68;57.53;102202.28;4900674;29;20222;-58
2022/10/03 01:48:00;;;;;;;7.67;2.27;;;14.70;80.40;;;17.69;57.62;102206.59;4900840;29;20207;-59
2022/10/03 01:50:36;;;;;;;8.43;2.47;;;14.70;80.40;;;17.72;57.46;102215.06;4900578;29;20202;-57
2022/10/03 01:53:13;;;;;;;7.77;3.23;;;14.70;80.30;;;17.71;57.36;102224.03;4901296;29;20568;-58
2022/10/03 01:55:58;;;;;;;8.77;2.60;;;14.80;80.30;;;17.70;56.89;102209.09;4900695;29;20195;-58
2022/10/03 01:58:39;;;;;;;7.47;2.57;;;14.80;80.40;;;17.74;57.62;102212.19;4899118;29;20258;-56
2022/10/03 02:01:19;;;;;;;11.90;3.07;;;14.80;80.30;;;17.78;57.35;102202.84;4900527;29;20191;-59
2022/10/03 02:03:54;;;;;;;7.47;3.43;;;14.80;80.30;;;17.82;57.40;102214.78;4900607;29;20219;-58
2022/10/03 02:06:33;;;;;;;7.23;2.20;;;14.80;80.40;;;17.86;57.34;102222.19;4900543;29;20218;-59
2022/10/03 02:09:10;;;;;;;8.10;2.27;;;14.90;80.30;;;17.91;57.36;102234.97;4881839;29;20565;-59
2022/10/03 02:11:58;;;;;;;8.37;2.70;;;14.90;80.30;;;17.92;57.31;102239.28;4880817;29;20694;-59
2022/10/03 02:14:39;;;;;;;7.27;2.43;;;14.90;80.20;;;17.94;57.18;102240.75;4899243;29;20218;-59
2022/10/03 02:17:20;;;;;;;8.47;2.43;;;14.90;80.10;;;17.93;57.19;102232.94;4900546;29;20239;-58
2022/10/03 02:20:00;;;;;;;8.50;2.73;;;15.00;80.10;;;17.90;57.29;102222.69;4900355;29;20661;-58
2022/10/03 02:22:34;;;;;;;10.73;2.77;;;15.00;80.30;;;17.87;57.17;102223.03;4898568;29;20471;-59
2022/10/03 02:25:22;;;;;;;12.10;3.20;;;14.90;80.10;;;17.81;57.20;102226.44;4908181;29;20225;-59
2022/10/03 02:28:59;;;;;;;8.13;3.03;;;14.90;80.20;;;17.71;57.80;102228.56;4918600;29;20494;-59
2022/10/03 02:32:22;;;;;;;7.83;3.00;;;14.90;80.70;;;17.67;57.73;102232.59;4897350;29;20207;-57
2022/10/03 02:35:31;;;;;;;6.37;2.50;;;14.90;80.60;;;17.62;58.04;102237.63;4899812;29;20250;-58
2022/10/03 02:38:40;;;;;;;6.30;1.90;;;14.90;80.60;;;17.58;58.19;102235.38;4869019;29;20673;-58
2022/10/03 02:41:38;;;;;;;7.07;2.50;;;14.80;80.70;;;17.58;58.01;102230.03;4897540;29;20226;-58
2022/10/03 02:44:54;;;;;;;7.00;2.10;;;14.80;80.70;;;17.55;58.22;102229.56;4899940;29;20191;-58
2022/10/03 02:48:01;;;;;;;17.37;11.30;;;14.70;80.70;;;17.52;57.81;102240.56;4899616;29;20255;-57
2022/10/03 02:51:47;;;;;;;8.53;2.60;;;14.80;80.50;;;17.44;58.12;102249.47;4879151;29;20275;-57
2022/10/03 02:55:29;;;;;;;7.87;2.80;;;14.70;80.50;;;17.42;58.35;102246.13;4881257;29;20549;-59
2022/10/03 02:59:02;;;;;;;7.10;2.27;;;14.70;80.60;;;17.40;58.28;102258.78;4811192;29;20275;-57
2022/10/03 03:02:24;;;;;;;5.67;2.00;;;14.70;80.50;;;17.41;58.07;102260.47;4880396;29;20615;-57
2022/10/03 03:05:23;;;;;;;6.07;2.00;;;14.60;80.40;;;17.44;58.15;102254.78;4874593;29;20310;-58
2022/10/03 03:08:42;;;;;;;6.63;2.30;;;14.60;80.60;;;17.47;58.19;102264.25;4899289;29;20192;-60
2022/10/03 03:11:58;;;;;;;7.23;2.67;;;14.60;80.50;;;17.43;57.92;102266.44;4891002;29;20211;-57
2022/10/03 03:15:10;;;;;;;7.47;2.20;;;14.60;80.30;;;17.37;57.72;102264.50;4897200;29;20227;-58
2022/10/03 03:17:55;;;;;;;11.50;2.47;;;14.60;80.20;;;17.37;57.71;102263.69;4897807;29;20399;-56
2022/10/03 03:20:53;;;;;;;6.17;2.23;;;14.60;80.20;;;17.33;57.86;102263.19;4901216;29;20219;-57
2022/10/03 03:23:56;;;;;;;8.73;2.70;;;14.50;80.20;;;17.26;57.80;102251.63;4918333;29;20223;-59
2022/10/03 03:27:05;;;;;;;4.30;1.90;;;14.50;80.20;;;17.17;58.11;102250.03;4884011;29;20236;-59
2022/10/03 03:29:44;;;;;;;8.13;2.40;;;14.50;80.30;;;17.15;57.79;102254.72;4869154;29;20248;-59
2022/10/03 03:32:28;;;;;;;6.30;2.40;;;14.40;80.00;;;17.09;58.11;102249.31;4905549;29;20211;-58
2022/10/03 03:35:12;;;;;;;6.37;2.07;;;14.30;80.10;;;17.03;58.13;102256.16;4906422;29;20695;-60
2022/10/03 03:37:55;;;;;;;10.07;2.60;;;14.30;80.20;;;16.97;58.05;102246.25;4909850;29;20195;-57
2022/10/03 03:40:38;;;;;;;12.90;2.93;;;14.20;80.20;;;16.91;58.23;102242.47;4915210;29;20203;-60
2022/10/03 03:43:46;;;;;;;9.63;2.47;;;14.20;80.50;;;16.81;58.32;102243.69;4911989;29;20242;-58
2022/10/03 03:46:33;;;;;;;7.73;2.37;;;14.10;80.60;;;16.79;58.56;102264.31;4900972;29;20274;-58
2022/10/03 03:49:28;;;;;;;9.57;2.50;;;14.10;80.70;;;16.74;58.49;102267.53;4898366;29;20203;-59
2022/10/03 03:52:20;;;;;;;7.07;2.27;;;14.10;80.90;;;16.72;58.43;102266.03;4892576;29;20231;-57
2022/10/03 03:55:26;;;;;;;9.87;2.20;;;14.00;81.00;;;16.65;58.50;102267.75;4879789;29;20236;-58
2022/10/03 03:58:12;;;;;;;9.43;2.40;;;14.00;81.00;;;16.67;58.74;102265.75;4865261;29;20219;-58
2022/10/03 04:01:25;;;;;;;10.87;2.23;;;13.90;81.10;;;16.62;58.81;102263.63;4879322;29;20180;-58
2022/10/03 04:04:11;;;;;;;6.53;2.40;;;13.90;81.10;;;16.61;58.94;102274.44;4888404;29;20227;-58
2022/10/03 04:06:56;;;;;;;5.57;2.03;;;13.90;81.10;;;16.61;58.63;102277.09;4896541;29;20231;-60
2022/10/03 04:09:58;;;;;;;6.43;2.57;;;13.80;82.00;;;16.61;58.84;102282.41;4897865;29;20192;-58
2022/10/03 04:12:52;;;;;;;7.83;2.30;;;13.80;81.60;;;16.64;58.83;102277.56;4881525;29;20223;-58
2022/10/03 04:15:45;;;;;;;7.10;2.27;;;13.80;81.60;;;16.69;59.17;102279.69;4898196;29;20634;-59
2022/10/03 04:18:58;;;;;;;7.20;2.10;;;13.80;81.90;;;16.73;58.91;102286.31;4912884;29;20222;-57
2022/10/03 04:22:03;;;;;;;9.23;2.13;;;13.80;82.10;;;16.80;59.09;102288.09;4915864;29;20202;-59
2022/10/03 04:25:00;;;;;;;6.10;1.90;;;13.90;82.10;;;16.88;59.14;102284.53;4909370;29;20262;-59
2022/10/03 04:28:09;;;;;;;8.53;1.97;;;13.90;82.20;;;16.90;58.72;102288.69;4897383;29;20259;-59
2022/10/03 04:31:00;;;;;;;5.77;2.00;;;14.00;82.00;;;16.95;58.89;102290.81;4897448;29;20752;-59
2022/10/03 04:33:48;;;;;;;8.00;2.40;;;14.00;81.80;;;16.98;58.65;102297.59;4900269;29;20226;-59
2022/10/03 04:36:57;;;;;;;7.80;2.20;;;14.10;81.70;;;16.96;58.64;102297.78;4904345;29;20195;-60
2022/10/03 04:39:36;;;;;;;10.67;2.43;;;14.10;81.70;;;16.98;58.50;102294.94;4906641;29;20207;-57
2022/10/03 04:42:20;;;;;;;5.17;2.23;;;14.10;81.50;;;16.98;58.64;102294.94;4903759;29;20639;-59
2022/10/03 04:45:29;;;;;;;7.87;1.93;;;14.10;81.60;;;16.91;58.69;102305.47;4904455;29;20194;-58
2022/10/03 04:48:15;;;;;;;9.77;2.33;;;14.10;81.40;;;16.89;58.91;102303.00;4899933;29;20215;-59
2022/10/03 04:51:00;;;;;;;5.57;1.63;;;14.10;81.40;;;16.88;58.73;102308.47;4903778;29;20258;-59
2022/10/03 04:53:48;;;;;;;5.93;2.37;;;14.00;81.40;;;16.87;58.70;102314.81;4904179;29;20562;-59
2022/10/03 04:56:51;;;;;;;5.80;2.03;;;14.00;81.60;;;16.86;58.83;102313.16;4904149;29;20266;-59
2022/10/03 04:59:37;;;;;;;11.40;2.10;;;14.00;81.80;;;16.89;58.97;102307.47;4892900;29;20215;-59
2022/10/03 05:02:21;;;;;;;6.20;1.97;;;14.00;81.80;;;16.91;58.87;102316.09;4902745;29;20243;-59
2022/10/03 05:05:18;;;;;;;5.70;1.70;;;14.00;81.80;;;16.87;58.53;102310.34;4904064;29;20262;-57
2022/10/03 05:07:57;;;;;;;5.77;2.20;;;14.00;81.90;;;16.86;58.77;102313.16;4904321;29;20204;-59
2022/10/03 05:10:55;;;;;;;6.43;2.60;;;14.00;81.80;;;16.79;58.67;102309.53;4903729;29;20198;-59
2022/10/03 05:13:44;;;;;;;3.93;2.13;;;14.00;81.90;;;16.74;58.90;102314.56;4909443;29;20214;-59
2022/10/03 05:16:27;;;;;;;5.50;2.27;;;14.00;81.90;;;16.72;58.88;102321.88;4885232;29;20192;-59
2022/10/03 05:19:32;;;;;;;8.17;2.20;;;13.90;82.00;;;16.67;59.09;102319.75;4885243;29;20188;-59
2022/10/03 05:22:10;;;;;;;7.43;2.40;;;13.90;82.10;;;16.69;58.97;102327.53;4884890;29;20254;-58
2022/10/03 05:24:49;;;;;;;5.23;1.47;;;13.90;82.10;;;16.65;59.36;102329.75;4907460;29;20206;-58
2022/10/03 05:27:29;;;;;;;10.93;2.83;;;13.80;82.10;;;16.65;59.52;102331.56;4903614;29;20203;-58
2022/10/03 05:30:06;;;;;;;8.33;2.03;;;13.80;82.40;;;16.65;59.34;102328.91;4903213;29;20718;-59
2022/10/03 05:32:44;;;;;;;6.33;1.73;;;13.80;82.40;;;16.62;59.17;102323.94;4902227;29;20222;-58
2022/10/03 05:35:44;;;;;;;7.13;1.63;;;13.80;82.50;;;16.59;59.25;102327.75;4903822;29;20736;-58
2022/10/03 05:39:00;;;;;;;6.40;2.20;;;13.80;83.50;;;16.57;59.79;102337.75;4903873;29;20199;-58
2022/10/03 05:41:31;;;;;;;8.43;2.20;;;13.80;82.80;;;16.59;59.53;102337.59;4879712;29;20207;-58
2022/10/03 05:44:05;;;;;;;8.43;2.07;;;13.80;82.80;;;16.59;59.65;102343.72;4883813;29;20279;-58
2022/10/03 05:46:56;;;;;;;7.20;2.07;;;13.80;82.80;;;16.60;59.59;102344.56;4885778;29;20222;-58
2022/10/03 05:49:56;;;;;;;5.93;1.93;;;13.80;82.80;;;16.58;59.64;102349.22;4900801;29;20311;-57
2022/10/03 05:52:54;;;;;;;5.63;1.80;;;13.80;83.00;;;16.60;59.71;102347.22;4900268;29;20215;-58
2022/10/03 05:55:42;;;;;;;5.70;2.00;;;13.80;82.90;;;16.61;59.59;102343.56;4900593;29;20206;-58
2022/10/03 05:58:41;;;;;;;8.50;2.00;;;13.80;82.80;;;16.58;59.46;102349.22;4899667;29;20215;-58
2022/10/03 06:01:56;;;;;;;7.50;2.33;;;13.80;82.90;;;16.52;59.66;102347.28;4914872;29;20199;-58
2022/10/03 06:05:12;;;;;;;5.03;1.80;;;13.80;82.80;;;16.51;59.94;102350.88;4887662;29;20196;-59
2022/10/03 06:08:19;;;;;;;6.27;1.67;;;13.70;83.00;;;16.52;59.82;102350.72;4881832;29;20226;-58
2022/10/03 06:11:07;;;;;;;6.47;1.97;;;13.70;82.80;;;16.53;59.88;102349.75;4882508;29;20218;-59
2022/10/03 06:14:00;;;;;;;7.73;2.00;;;13.70;83.00;;;16.58;60.06;102351.88;4900237;29;20238;-59
2022/10/03 06:16:43;;;;;;;6.07;2.03;;;13.70;83.10;;;16.60;59.87;102350.69;4900290;29;20202;-59
2022/10/03 06:19:38;;;;;;;6.73;2.00;;;13.80;83.20;;;16.62;59.74;102358.50;4899574;29;20248;-58
2022/10/03 06:23:05;;;;;;;8.23;2.53;;;13.80;83.40;;;16.63;60.03;102349.53;4881595;29;20218;-58
2022/10/03 06:26:35;;;;;;;6.03;2.00;;;13.80;83.40;;;16.63;60.08;102352.19;4896380;29;20692;-59
2022/10/03 06:29:56;;;;;;;4.23;1.80;;;13.80;83.40;;;16.66;60.04;102365.16;4895662;29;20271;-58
2022/10/03 06:33:40;;;;;;;8.37;2.40;;;13.80;83.30;;;16.67;59.93;102356.97;4880237;29;20227;-58
2022/10/03 06:36:58;;;;;;;4.73;1.70;;;13.90;83.30;;;16.71;59.80;102368.13;4888522;29;20661;-58
2022/10/03 06:40:31;;;;;;;5.20;2.37;;;13.90;83.20;;;16.76;59.94;102365.72;4901660;29;20203;-59
2022/10/03 06:43:40;;;;;;;6.70;2.43;;;14.00;83.40;;;16.93;60.17;102377.94;4899895;29;20226;-59
2022/10/03 06:47:04;;;;;;;7.33;2.50;;;14.00;83.50;;;17.08;59.55;102370.88;4891962;29;20226;-59
2022/10/03 06:50:11;;;;;;;5.47;1.83;;;14.10;83.60;;;17.24;59.55;102375.22;4868087;29;20569;-57
2022/10/03 06:53:20;;;;;;;8.37;2.10;;;14.20;83.40;;;17.37;59.21;102376.31;4892517;29;20227;-59
2022/10/03 06:56:21;;;;;;;5.80;1.80;;;14.40;83.30;;;17.43;59.16;102370.25;4880220;29;20283;-59
2022/10/03 06:59:29;;;;;;;5.50;2.10;;;14.50;83.00;;;17.51;59.05;102377.34;4880470;29;20215;-58
2022/10/03 07:02:59;;;;;;;9.37;2.20;;;14.50;82.80;;;17.55;58.95;102368.03;4880135;29;20204;-58
2022/10/03 07:06:16;;;;;;;9.07;1.77;;;14.60;82.60;;;17.59;58.68;102364.81;4831171;29;20702;-59
2022/10/03 07:09:39;;;;;;;5.80;2.33;;;14.70;82.40;;;17.62;58.80;102366.28;4894641;29;20741;-58
2022/10/03 07:12:51;;;;;;;6.33;2.23;;;14.70;82.30;;;17.69;58.72;102369.06;4893008;29;20633;-60
2022/10/03 07:16:08;;;;;;;7.60;2.37;;;14.80;82.30;;;17.81;58.79;102375.59;4899015;29;20598;-58
2022/10/03 07:19:43;;;;;;;6.97;2.17;;;14.80;82.40;;;17.94;58.65;102383.81;4899121;29;20290;-59
2022/10/03 07:22:48;;;;;;;6.57;2.17;;;14.90;82.30;;;18.08;58.43;102396.31;4882950;29;20239;-59
2022/10/03 07:26:02;;;;;;;7.73;1.80;;;15.10;82.30;;;18.21;58.14;102396.50;4898728;29;20191;-57
2022/10/03 07:29:13;;;;;;;6.83;2.10;;;15.10;82.00;;;18.31;57.95;102396.22;4897605;29;20213;-58
2022/10/03 07:32:11;;;;;;;8.63;2.40;;;15.20;81.80;;;18.45;57.82;102398.88;4879290;29;20665;-59
2022/10/03 07:38:56;;;;;;;6.37;2.27;;;15.30;81.70;;;18.64;57.52;102401.00;4898597;29;20206;-59
2022/10/03 07:39:01;;;;;;;10.23;2.10;;;15.40;81.50;;;18.87;57.15;102409.69;4898810;29;20195;-60
2022/10/03 07:42:33;;;;;;;12.07;2.60;;;15.60;81.40;;;19.09;56.88;102407.09;4889934;29;20657;-58
2022/10/03 07:45:38;;;;;;;9.47;2.17;;;15.80;81.20;;;19.36;56.17;102414.34;4867519;29;20207;-59
2022/10/03 07:48:58;;;;;;;7.27;2.43;;;16.00;80.70;;;19.56;55.70;102415.38;4878451;29;20243;-58
2022/10/03 07:51:39;;;;;;;5.23;1.80;;;16.20;80.30;;;19.74;55.02;102423.75;4898318;29;20183;-59
2022/10/03 07:54:53;;;;;;;5.90;2.10;;;16.30;79.60;;;19.92;55.11;102410.72;4898574;29;20231;-58
2022/10/03 07:58:00;;;;;;;6.30;1.90;;;16.50;79.00;;;20.14;54.38;102412.31;4897784;29;20217;-59
2022/10/03 08:00:46;;;;;;;6.90;2.33;;;16.70;78.80;;;20.31;54.01;102420.06;4897494;29;20557;-59
2022/10/03 08:03:55;;;;;;;7.70;2.23;;;16.80;78.00;;;20.36;53.93;102425.66;4913052;29;20226;-59
2022/10/03 08:06:37;;;;;;;4.93;2.07;;;17.00;77.40;;;20.46;53.33;102420.78;4917159;29;20197;-59
2022/10/03 08:09:47;;;;;;;4.83;1.97;;;17.10;77.10;;;20.52;52.97;102417.28;4916105;29;20246;-59
2022/10/03 08:12:57;;;;;;;11.77;2.77;;;17.20;76.70;;;20.53;52.83;102424.31;4914999;29;20222;-61
2022/10/03 08:15:43;;;;;;;8.13;2.20;;;17.20;76.00;;;20.57;52.65;102425.53;4898088;29;20195;-59
2022/10/03 08:19:04;;;;;;;6.13;2.37;;;17.30;75.80;;;20.51;52.52;102426.34;4898468;29;20274;-59
2022/10/03 08:21:59;;;;;;;5.30;2.07;;;17.30;75.40;;;20.55;52.98;102432.94;4897441;29;20196;-59
2022/10/03 08:25:06;;;;;;;9.63;2.20;;;17.30;75.40;;;20.59;53.08;102439.56;4897981;29;20191;-58
2022/10/03 08:28:09;;;;;;;9.03;2.77;;;17.40;75.50;;;20.70;52.26;102442.50;4897585;29;20226;-59
2022/10/03 08:31:11;;;;;;;3.67;1.70;;;17.50;75.80;;;21.02;52.51;102446.31;4897401;29;20258;-58
2022/10/03 08:34:03;;;;;;;8.80;2.10;;;17.60;75.10;;;21.70;51.86;102444.44;4897217;29;20222;-58
2022/10/03 08:37:32;;;;;;;8.53;2.40;;;17.80;75.30;;;22.48;50.00;102443.53;4898540;29;20274;-56
2022/10/03 08:40:59;;;;;;;6.57;2.23;;;18.30;74.30;;;22.85;48.74;102440.94;4905784;29;20202;-56
2022/10/03 08:44:21;;;;;;;6.20;2.17;;;18.90;72.30;;;22.99;48.05;102446.25;4898440;29;20748;-60
2022/10/03 08:47:40;;;;;;;6.93;2.00;;;19.40;69.50;;;22.92;47.94;102444.41;4900738;29;20231;-61
2022/10/03 08:50:48;;;;;;;7.87;2.30;;;19.80;68.40;;;22.80;47.42;102450.66;4897440;29;20214;-59
2022/10/03 08:54:04;;;;;;;7.27;2.30;;;19.90;66.70;;;22.73;47.31;102450.69;4899204;29;20211;-57
2022/10/03 08:57:05;;;;;;;6.57;1.77;;;19.90;66.30;;;22.99;46.75;102449.75;4899231;29;20206;-59
2022/10/03 09:00:04;;;;;;;4.40;2.10;;;19.90;66.10;;;23.49;45.46;102453.41;4914002;29;20206;-59
2022/10/03 09:03:35;;;;;;;5.07;2.30;;;20.00;65.40;;;23.98;44.62;102452.59;4915459;29;20218;-59
2022/10/03 09:06:56;;;;;;;6.40;2.03;;;20.20;64.70;;;24.91;43.92;102459.50;4841055;29;20672;-59
2022/10/03 09:10:36;;;;;;;6.47;2.20;;;20.70;64.40;;;26.50;40.69;102457.56;4923390;29;20199;-57
2022/10/03 09:14:02;;;;;;;4.80;1.87;;;21.40;62.50;;;27.94;38.95;102453.47;4897500;29;20336;-58
2022/10/03 09:17:18;;;;;;;4.60;2.47;;;22.30;61.10;;;29.32;36.60;102456.63;4897642;29;20195;-59
2022/10/03 09:20:47;;;;;;;5.57;2.03;;;23.30;59.50;;;30.66;34.59;102459.75;4874562;29;20290;-58
2022/10/03 09:24:17;;;;;;;6.20;2.27;;;24.40;55.70;;;31.93;32.83;102463.44;4878011;29;20266;-60
2022/10/03 09:27:34;;;;;;;6.13;2.10;;;25.50;54.70;;;32.81;29.15;102455.59;4846412;29;20212;-59
2022/10/03 09:30:30;;;;;;;2.93;1.73;;;26.30;48.40;;;33.29;29.29;102462.94;4887847;29;20206;-59
2022/10/03 09:33:50;;;;;;;5.80;2.17;;;27.10;47.80;;;33.91;28.60;102456.66;4900497;29;20219;-60
2022/10/03 09:37:00;;;;;;;5.90;2.77;;;27.80;46.90;;;34.36;26.74;102458.09;4900575;29;20245;-58
2022/10/03 09:40:17;;;;;;;5.78;2.45;;;28.30;42.90;;;34.86;26.19;102457.47;4900391;29;20200;-60
2022/10/03 09:43:34;;;;;;;4.90;2.00;;;28.80;43.30;;;35.27;25.51;102452.22;4900471;29;20586;-57
2022/10/03 09:47:21;;;;;;;5.28;2.67;;;29.10;41.20;;;35.73;25.20;102450.31;4900451;29;20211;-59
2022/10/03 09:50:20;;;;;;;5.05;2.00;;;29.50;40.30;;;35.28;25.36;102457.38;4879895;29;20545;-58
2022/10/03 09:53:28;;;;;;;3.50;2.22;;;29.70;39.10;;;34.14;25.22;102444.94;4899873;29;20242;-57
2022/10/03 09:56:36;;;;;;;3.15;2.30;;;29.30;38.10;;;33.80;26.05;102442.31;4915442;29;20286;-59
2022/10/03 09:59:29;;;;;;;6.90;2.60;;;29.00;38.80;;;34.12;25.89;102446.34;4919039;29;20187;-56
2022/10/03 10:02:18;;;;;;;5.53;2.23;;;28.70;39.60;;;34.32;25.90;102448.84;4918547;29;20187;-58
2022/10/03 10:05:17;;;;;;;4.20;2.05;;;28.70;40.50;;;34.67;25.10;102446.50;4919210;29;20195;-59
2022/10/03 10:08:08;;;;;;;4.00;2.03;;;28.60;38.90;;;34.26;25.01;102452.75;4908150;29;20294;-59
2022/10/03 10:10:56;;;;;;;4.70;2.50;;;28.50;39.20;;;33.19;26.01;102450.16;4881048;29;20204;-60
2022/10/03 10:14:16;;;;;;;3.83;1.97;;;28.10;39.30;;;32.00;26.96;102453.13;4905726;29;20716;-57
2022/10/03 10:17:29;;;;;;;3.87;2.07;;;27.60;39.10;;;31.94;27.10;102449.56;4900216;29;20187;-58
2022/10/03 10:20:19;;;;;;;4.13;1.67;;;27.30;40.40;;;31.76;27.53;102452.84;4899938;29;20219;-60
2022/10/03 10:23:18;;;;;;;4.60;1.97;;;27.00;40.70;;;31.10;27.63;102448.44;4899480;29;20309;-59
2022/10/03 10:26:56;;;;;;;5.73;2.00;;;26.70;40.80;;;30.38;28.77;102448.47;4899654;29;20207;-58
2022/10/03 10:30:12;;;;;;;4.23;1.80;;;26.30;41.40;;;29.78;30.09;102441.56;4898849;29;20187;-59
2022/10/03 10:33:50;;;;;;;4.50;2.03;;;26.10;42.60;;;29.17;30.77;102448.31;4896788;29;20215;-59
2022/10/03 10:37:23;;;;;;;4.57;1.93;;;25.80;43.10;;;28.39;31.50;102437.06;4899476;29;20602;-59
2022/10/03 10:40:36;;;;;;;7.23;2.00;;;25.40;43.30;;;27.81;32.12;102441.13;4901091;29;20195;-58
2022/10/03 10:43:51;;;;;;;3.23;1.70;;;25.00;44.50;;;27.30;33.36;102439.41;4899077;29;20249;-59
2022/10/03 10:47:04;;;;;;;4.57;2.03;;;24.60;45.50;;;26.95;33.90;102437.94;4891407;29;20279;-58
2022/10/03 10:50:19;;;;;;;3.83;1.87;;;24.10;46.20;;;26.50;34.55;102435.94;4899067;29;20191;-60
2022/10/03 10:53:44;;;;;;;6.03;1.60;;;23.70;46.90;;;26.25;34.69;102446.19;4882358;29;20243;-61
2022/10/03 10:57:06;;;;;;;3.17;1.43;;;23.40;48.10;;;26.18;35.45;102442.78;4913433;29;20223;-60
2022/10/03 11:00:28;;;;;;;6.93;1.97;;;23.10;49.20;;;26.19;35.51;102447.16;4897081;29;20286;-58
2022/10/03 11:04:02;;;;;;;4.83;1.70;;;23.00;49.80;;;26.02;36.11;102435.38;4885146;29;20239;-61
2022/10/03 11:07:24;;;;;;;4.43;1.77;;;22.80;50.10;;;26.14;36.34;102441.63;4899307;29;20213;-61
2022/10/03 11:10:31;;;;;;;4.73;1.57;;;22.80;50.90;;;25.97;36.12;102433.41;4899171;29;20243;-60
2022/10/03 11:14:00;;;;;;;6.37;1.70;;;22.70;50.90;;;25.71;36.90;102433.84;4898756;29;20266;-60
2022/10/03 11:17:20;;;;;;;7.80;2.30;;;22.60;50.90;;;25.43;37.02;102431.78;4844644;29;20208;-60
2022/10/03 11:20:46;;;;;;;3.60;1.90;;;22.50;51.10;;;25.12;37.33;102429.34;4880628;29;20208;-59
2022/10/03 11:24:20;;;;;;;3.90;1.87;;;22.20;51.30;;;24.89;37.85;102423.84;4880293;29;20212;-61
2022/10/03 11:27:36;;;;;;;5.70;1.43;;;22.10;52.10;;;25.05;38.59;102428.63;4880553;29;20523;-59
2022/10/03 11:30:22;;;;;;;3.97;1.73;;;22.00;52.80;;;25.60;37.83;102420.34;4885956;29;20210;-59
2022/10/03 11:33:53;;;;;;;7.30;2.13;;;22.10;53.20;;;25.75;37.65;102424.22;4912556;29;20219;-59
2022/10/03 11:37:08;;;;;;;3.20;1.97;;;22.30;53.20;;;25.78;37.46;102428.34;4898833;29;20217;-59
2022/10/03 11:39:53;;;;;;;4.03;1.53;;;22.50;53.00;;;25.89;37.20;102427.50;4898648;29;20712;-59
2022/10/03 11:42:49;;;;;;;4.00;1.80;;;22.60;52.60;;;25.99;36.72;102427.75;4897929;29;20267;-60
2022/10/03 11:45:31;;;;;;;3.07;1.83;;;22.70;52.20;;;25.97;36.54;102421.78;4898591;29;20227;-60
2022/10/03 11:48:36;;;;;;;6.00;1.80;;;22.80;51.70;;;25.81;36.47;102422.47;4898749;29;20223;-60
2022/10/03 11:51:10;;;;;;;5.70;1.40;;;22.70;51.60;;;25.70;37.05;102415.22;4879654;29;20199;-59
2022/10/03 11:53:50;;;;;;;5.57;1.70;;;22.60;51.00;;;25.52;36.65;102425.03;4893975;29;20670;-59
2022/10/03 11:56:43;;;;;;;2.07;1.27;;;22.50;51.30;;;25.37;37.61;102421.91;4879463;29;20192;-59
2022/10/03 11:59:33;;;;;;;4.40;1.60;;;22.40;51.60;;;25.19;37.74;102423.88;4879816;29;20230;-59
2022/10/03 12:02:30;;;;;;;4.80;1.80;;;22.20;51.60;;;25.16;37.26;102427.84;4879193;29;20220;-59
2022/10/03 12:05:04;;;;;;;3.47;1.27;;;22.10;51.50;;;25.26;37.41;102419.19;4879303;29;20187;-59
2022/10/03 12:11:10;;;;;;;3.23;1.47;;;22.00;51.40;;;25.05;37.67;102425.94;4879376;29;20268;-59
2022/10/03 12:13:48;;;;;;;4.07;1.90;;;22.00;52.40;;;24.98;37.42;102417.13;4890935;29;20219;-59
2022/10/03 12:16:26;;;;;;;2.87;1.60;;;21.90;52.00;;;24.96;38.36;102413.00;4897763;29;20637;-59
2022/10/03 12:19:07;;;;;;;2.83;1.53;;;21.90;52.70;;;24.92;38.32;102423.41;4897656;29;20695;-60
2022/10/03 12:21:49;;;;;;;4.40;1.70;;;21.90;52.90;;;24.98;38.44;102416.28;4878241;29;20188;-59
2022/10/03 12:24:30;;;;;;;4.93;1.60;;;21.90;52.90;;;24.96;38.55;102423.78;4884399;29;20533;-62
2022/10/03 12:27:16;;;;;;;5.13;1.60;;;21.90;53.30;;;24.87;38.68;102415.19;4897910;29;20207;-59
2022/10/03 12:29:57;;;;;;;3.37;1.40;;;21.90;53.30;;;24.77;38.66;102429.19;4897201;29;20214;-59
2022/10/03 12:32:41;;;;;;;3.20;1.73;;;21.90;53.00;;;24.65;38.78;102433.66;4896753;29;20222;-59
2022/10/03 12:35:34;;;;;;;3.03;1.60;;;21.80;52.80;;;24.47;38.56;102430.16;4897126;29;20211;-60
2022/10/03 12:38:26;;;;;;;5.50;2.20;;;21.70;53.10;;;24.31;39.11;102420.00;4883483;29;20276;-59
2022/10/03 12:41:12;;;;;;;6.20;1.50;;;21.60;53.50;;;24.19;39.12;102422.63;4898760;29;20219;-59